createdAt,value
2018-11-13T00:01:47.075Z,6.38
2018-11-13T00:04:17.098Z,6.40
2018-11-13T00:06:47.022Z,6.37
2018-11-13T00:09:18.162Z,6.36
2018-11-13T00:11:49.294Z,6.46
2018-11-13T00:14:19.128Z,6.48
2018-11-13T00:16:50.202Z,6.38
2018-11-13T00:19:20.140Z,6.39
2018-11-13T00:21:50.321Z,6.35
2018-11-13T00:24:21.268Z,6.38
2018-11-13T00:26:57.395Z,6.32
2018-11-13T00:29:27.869Z,6.27
2018-11-13T00:31:58.214Z,6.25
2018-11-13T00:34:29.127Z,6.24
2018-11-13T00:36:58.584Z,6.19
2018-11-13T00:39:30.327Z,6.21
2018-11-13T00:42:00.285Z,6.17
2018-11-13T00:44:31.085Z,6.18
2018-11-13T00:47:00.466Z,6.18
2018-11-13T00:49:31.395Z,6.25
2018-11-13T00:52:00.727Z,6.15
2018-11-13T00:54:32.430Z,6.13
2018-11-13T00:57:03.460Z,6.02
2018-11-13T00:59:33.959Z,6.08
2018-11-13T01:02:03.593Z,6.03
2018-11-13T01:04:35.290Z,6.08
2018-11-13T01:07:08.431Z,5.96
2018-11-13T01:09:39.478Z,6.08
2018-11-13T01:12:09.484Z,6.13
2018-11-13T01:14:40.560Z,6.02
2018-11-13T01:17:10.971Z,6.05
2018-11-13T01:19:42.136Z,6.01
2018-11-13T01:22:12.468Z,5.99
2018-11-13T01:24:45.342Z,6.06
2018-11-13T01:27:14.774Z,6.04
2018-11-13T01:29:51.931Z,5.96
2018-11-13T01:32:23.999Z,5.89
2018-11-13T01:34:53.934Z,5.90
2018-11-13T01:37:23.842Z,5.90
2018-11-13T01:39:55.212Z,5.92
2018-11-13T01:42:25.211Z,5.95
2018-11-13T01:44:55.569Z,5.94
2018-11-13T01:47:29.038Z,5.96
2018-11-13T01:49:59.590Z,5.93
2018-11-13T01:52:29.615Z,5.97
2018-11-13T01:55:00.119Z,5.99
2018-11-13T01:57:30.762Z,6.04
2018-11-13T02:00:00.291Z,5.95
2018-11-13T02:02:30.062Z,5.91
2018-11-13T02:04:59.715Z,5.75
2018-11-13T02:07:29.533Z,5.82
2018-11-13T02:10:00.151Z,5.79
2018-11-13T02:12:30.827Z,5.80
2018-11-13T02:15:00.175Z,5.78
2018-11-13T02:17:31.706Z,5.77
2018-11-13T02:20:01.076Z,5.73
2018-11-13T02:22:32.755Z,5.74
2018-11-13T02:25:03.854Z,5.83
2018-11-13T02:27:33.734Z,5.81
2018-11-13T02:30:04.226Z,5.75
2018-11-13T02:32:35.823Z,5.53
2018-11-13T02:35:08.502Z,5.50
2018-11-13T02:37:39.599Z,5.62
2018-11-13T02:40:13.843Z,5.58
2018-11-13T02:42:44.724Z,5.60
2018-11-13T02:45:17.966Z,5.67
2018-11-13T02:47:47.962Z,5.69
2018-11-13T02:50:20.075Z,5.70
2018-11-13T02:52:51.788Z,5.73
2018-11-13T02:55:23.850Z,5.70
2018-11-13T02:57:56.016Z,5.66
2018-11-13T03:00:26.958Z,5.75
2018-11-13T03:02:57.222Z,5.58
2018-11-13T03:05:26.984Z,5.61
2018-11-13T03:08:00.231Z,5.60
2018-11-13T03:10:30.311Z,5.58
2018-11-13T03:13:01.350Z,5.63
2018-11-13T03:15:31.810Z,5.59
2018-11-13T03:18:02.143Z,5.57
2018-11-13T03:20:32.674Z,5.59
2018-11-13T03:23:03.255Z,5.57
2018-11-13T03:25:33.782Z,5.54
2018-11-13T03:28:03.999Z,5.57
2018-11-13T03:30:34.074Z,5.56
2018-11-13T03:33:04.190Z,5.54
2018-11-13T03:35:35.249Z,5.54
2018-11-13T03:38:06.422Z,5.54
2018-11-13T03:40:36.116Z,5.56
2018-11-13T03:43:07.072Z,5.61
2018-11-13T03:45:37.275Z,5.49
2018-11-13T03:48:07.311Z,5.48
2018-11-13T03:50:38.338Z,5.46
2018-11-13T03:53:08.168Z,5.42
2018-11-13T03:55:39.389Z,5.38
2018-11-13T03:58:10.443Z,5.38
2018-11-13T04:00:40.474Z,5.36
2018-11-13T04:03:10.861Z,5.37
2018-11-13T04:05:41.245Z,5.33
2018-11-13T04:08:12.359Z,5.40
2018-11-13T04:10:42.615Z,5.40
2018-11-13T04:13:12.992Z,5.32
2018-11-13T04:15:43.246Z,5.34
2018-11-13T04:18:13.303Z,5.43
2018-11-13T04:20:49.074Z,5.33
2018-11-13T04:23:18.426Z,5.17
2018-11-13T04:25:49.283Z,5.10
2018-11-13T04:28:19.366Z,5.10
2018-11-13T04:30:49.254Z,5.11
2018-11-13T04:33:23.418Z,5.08
2018-11-13T04:35:53.276Z,5.02
2018-11-13T04:38:23.776Z,5.06
2018-11-13T04:40:54.622Z,5.07
2018-11-13T04:43:24.542Z,5.08
2018-11-13T04:45:55.378Z,5.07
2018-11-13T04:48:25.726Z,5.02
2018-11-13T04:50:56.560Z,5.03
2018-11-13T04:53:26.491Z,4.95
2018-11-13T04:55:57.419Z,4.92
2018-11-13T04:58:27.516Z,4.84
2018-11-13T05:00:57.462Z,4.92
2018-11-13T05:03:28.435Z,4.92
2018-11-13T05:05:58.136Z,4.97
2018-11-13T05:08:34.139Z,4.96
2018-11-13T05:11:07.859Z,4.64
2018-11-13T05:13:39.513Z,4.98
2018-11-13T05:16:10.125Z,4.96
2018-11-13T05:18:39.559Z,4.88
2018-11-13T05:21:10.447Z,4.92
2018-11-13T05:23:44.466Z,4.83
2018-11-13T05:26:15.618Z,4.81
2018-11-13T05:28:46.170Z,4.88
2018-11-13T05:31:17.319Z,4.91
2018-11-13T05:33:52.959Z,4.84
2018-11-13T05:36:24.285Z,4.85
2018-11-13T05:38:53.641Z,4.85
2018-11-13T05:41:24.655Z,4.82
2018-11-13T05:43:54.526Z,4.87
2018-11-13T05:46:25.617Z,4.90
2018-11-13T05:48:57.126Z,5.00
2018-11-13T05:51:26.742Z,5.09
2018-11-13T05:53:57.715Z,5.02
2018-11-13T05:56:34.235Z,4.96
2018-11-13T05:59:03.840Z,4.93
2018-11-13T06:01:34.709Z,4.91
2018-11-13T06:04:05.374Z,4.90
2018-11-13T06:06:35.892Z,4.86
2018-11-13T06:09:09.407Z,4.98
2018-11-13T06:11:39.663Z,4.93
2018-11-13T06:14:15.924Z,4.79
2018-11-13T06:16:45.817Z,4.78
2018-11-13T06:22:20.166Z,4.83
2018-11-13T06:24:50.845Z,4.76
2018-11-13T06:27:21.136Z,4.73
2018-11-13T06:29:50.758Z,4.82
2018-11-13T06:32:21.966Z,4.81
2018-11-13T06:34:53.863Z,4.69
2018-11-13T06:37:25.911Z,4.78
2018-11-13T06:39:55.950Z,4.69
2018-11-13T06:42:27.063Z,4.60
2018-11-13T06:44:56.427Z,4.52
2018-11-13T06:47:28.110Z,4.61
2018-11-13T06:50:00.419Z,4.65
2018-11-13T06:52:32.138Z,4.60
2018-11-13T06:55:05.055Z,4.69
2018-11-13T06:57:35.943Z,4.68
2018-11-13T07:00:12.999Z,4.69
2018-11-13T07:02:43.140Z,4.72
2018-11-13T07:05:15.505Z,4.75
2018-11-13T07:07:47.262Z,4.85
2018-11-13T07:10:19.664Z,4.86
2018-11-13T07:12:54.671Z,4.93
2018-11-13T07:15:27.175Z,4.94
2018-11-13T07:18:00.048Z,4.94
2018-11-13T07:20:35.610Z,4.56
2018-11-13T07:23:05.148Z,4.38
2018-11-13T07:25:36.063Z,4.44
2018-11-13T07:28:06.292Z,4.32
2018-11-13T07:30:37.147Z,4.49
2018-11-13T07:33:08.058Z,4.68
2018-11-13T07:35:43.907Z,4.66
2018-11-13T07:38:18.110Z,4.81
2018-11-13T07:40:49.123Z,4.91
2018-11-13T07:43:19.230Z,4.90
2018-11-13T07:45:49.366Z,5.17
2018-11-13T07:48:19.438Z,5.33
2018-11-13T07:50:52.970Z,5.30
2018-11-13T07:53:23.304Z,5.12
2018-11-13T07:55:54.238Z,4.83
2018-11-13T07:58:24.328Z,4.89
2018-11-13T08:00:55.132Z,4.59
2018-11-13T08:03:33.364Z,4.61
2018-11-13T08:06:10.303Z,4.51
2018-11-13T08:08:42.286Z,4.52
2018-11-13T08:11:15.599Z,4.70
2018-11-13T08:13:46.235Z,4.70
2018-11-13T08:16:21.043Z,4.78
2018-11-13T08:18:50.445Z,4.92
2018-11-13T08:21:20.472Z,4.82
2018-11-13T08:23:51.588Z,4.72
2018-11-13T08:26:22.640Z,4.76
2018-11-13T08:28:52.640Z,4.85
2018-11-13T08:31:23.551Z,5.17
2018-11-13T08:33:54.376Z,5.05
2018-11-13T08:36:24.491Z,5.16
2018-11-13T08:38:55.425Z,5.24
2018-11-13T08:41:26.610Z,5.41
2018-11-13T08:43:56.839Z,5.52
2018-11-13T08:46:27.534Z,5.34
2018-11-13T08:48:58.514Z,5.21
2018-11-13T08:51:31.739Z,5.40
2018-11-13T08:54:01.195Z,5.41
2018-11-13T08:56:32.565Z,5.69
2018-11-13T08:59:04.749Z,5.91
2018-11-13T09:01:40.177Z,5.95
2018-11-13T09:04:19.426Z,5.92
2018-11-13T09:06:52.539Z,6.10
2018-11-13T09:09:24.534Z,6.12
2018-11-13T09:11:54.598Z,6.29
2018-11-13T09:14:24.918Z,6.38
2018-11-13T09:16:54.747Z,6.43
2018-11-13T09:19:24.741Z,6.17
2018-11-13T09:21:55.835Z,6.11
2018-11-13T09:24:25.919Z,6.19
2018-11-13T09:26:55.846Z,6.35
2018-11-13T09:29:26.698Z,6.45
2018-11-13T09:31:58.589Z,6.51
2018-11-13T09:34:30.292Z,6.68
2018-11-13T09:37:00.819Z,6.62
2018-11-13T09:39:31.667Z,6.53
2018-11-13T09:42:01.099Z,6.62
2018-11-13T09:44:31.531Z,6.61
2018-11-13T09:47:00.950Z,6.56
2018-11-13T09:49:31.979Z,6.45
2018-11-13T09:52:01.375Z,6.53
2018-11-13T09:54:32.775Z,6.61
2018-11-13T09:57:04.011Z,6.80
2018-11-13T09:59:34.916Z,6.76
2018-11-13T10:02:08.603Z,7.13
2018-11-13T10:04:39.225Z,7.19
2018-11-13T10:07:10.750Z,7.65
2018-11-13T10:09:43.585Z,7.60
2018-11-13T10:12:12.980Z,7.73
2018-11-13T10:14:43.807Z,7.65
2018-11-13T10:17:17.788Z,7.69
2018-11-13T10:19:58.091Z,7.66
2018-11-13T10:22:27.991Z,7.62
2018-11-13T10:24:57.890Z,7.80
2018-11-13T10:27:34.866Z,7.94
2018-11-13T10:30:06.775Z,8.27
2018-11-13T10:32:39.353Z,8.67
2018-11-13T10:35:11.306Z,8.87
2018-11-13T10:37:43.143Z,8.72
2018-11-13T10:40:16.389Z,8.94
2018-11-13T10:42:48.525Z,9.11
2018-11-13T10:45:23.766Z,9.09
2018-11-13T10:47:54.104Z,9.10
2018-11-13T10:50:26.339Z,8.91
2018-11-13T10:52:56.404Z,9.19
2018-11-13T10:55:29.705Z,9.78
2018-11-13T10:58:00.062Z,9.98
2018-11-13T11:00:36.306Z,10.20
2018-11-13T11:05:14.971Z,10.03
2018-11-13T11:07:48.423Z,9.48
2018-11-13T11:10:19.263Z,10.09
2018-11-13T11:12:50.068Z,10.30
2018-11-13T11:15:22.972Z,10.64
2018-11-13T11:18:01.011Z,10.09
2018-11-13T11:20:30.764Z,10.32
2018-11-13T11:23:01.151Z,9.93
2018-11-13T11:25:32.055Z,10.26
2018-11-13T11:28:02.231Z,10.55
2018-11-13T11:30:32.285Z,10.84
2018-11-13T11:33:01.720Z,10.89
2018-11-13T11:35:33.387Z,10.70
2018-11-13T11:38:04.477Z,10.78
2018-11-13T11:40:34.291Z,10.28
2018-11-13T11:43:04.447Z,10.22
2018-11-13T11:45:36.290Z,10.09
2018-11-13T11:48:06.618Z,9.81
2018-11-13T11:50:36.459Z,10.41
2018-11-13T11:53:07.406Z,10.27
2018-11-13T11:55:38.539Z,10.59
2018-11-13T11:58:08.937Z,10.70
2018-11-13T12:00:39.900Z,10.51
2018-11-13T12:03:10.135Z,10.57
2018-11-13T12:05:43.286Z,10.63
2018-11-13T12:08:17.486Z,10.84
2018-11-13T12:10:49.271Z,10.87
2018-11-13T12:13:21.462Z,11.19
2018-11-13T12:15:52.531Z,11.20
2018-11-13T12:18:23.431Z,11.30
2018-11-13T12:20:53.474Z,11.21
2018-11-13T12:23:24.431Z,11.14
2018-11-13T12:25:58.562Z,11.11
2018-11-13T12:28:29.717Z,11.17
2018-11-13T12:30:59.563Z,11.15
2018-11-13T12:33:30.539Z,11.02
2018-11-13T12:36:01.247Z,11.05
2018-11-13T12:38:34.397Z,11.01
2018-11-13T12:41:04.930Z,11.11
2018-11-13T12:43:35.682Z,11.00
2018-11-13T12:46:06.515Z,10.95
2018-11-13T12:48:42.688Z,11.00
2018-11-13T12:54:12.858Z,11.07
2018-11-13T12:56:47.523Z,10.98
2018-11-13T12:59:17.690Z,10.94
2018-11-13T13:01:48.554Z,10.94
2018-11-13T13:04:25.023Z,10.97
2018-11-13T13:06:55.823Z,11.01
2018-11-13T13:09:29.454Z,11.01
2018-11-13T13:12:01.985Z,10.96
2018-11-13T13:14:34.032Z,10.98
2018-11-13T13:17:04.966Z,11.02
2018-11-13T13:19:35.687Z,11.08
2018-11-13T13:22:05.242Z,11.15
2018-11-13T13:24:35.719Z,11.08
2018-11-13T13:27:10.851Z,11.10
2018-11-13T13:29:41.705Z,11.04
2018-11-13T13:32:16.518Z,11.02
2018-11-13T13:34:49.978Z,11.01
2018-11-13T13:37:21.810Z,10.96
2018-11-13T13:39:55.074Z,10.89
2018-11-13T13:42:25.846Z,10.92
2018-11-13T13:44:56.955Z,10.95
2018-11-13T13:47:27.850Z,11.01
2018-11-13T13:49:57.994Z,11.06
2018-11-13T13:52:28.863Z,10.99
2018-11-13T13:54:58.846Z,11.01
2018-11-13T13:57:30.645Z,10.96
2018-11-13T14:00:01.465Z,11.07
2018-11-13T14:02:30.614Z,11.02
2018-11-13T14:05:00.994Z,10.99
2018-11-13T14:07:32.062Z,10.97
2018-11-13T14:10:01.534Z,11.03
2018-11-13T14:12:32.879Z,11.07
2018-11-13T14:15:03.521Z,11.10
2018-11-13T14:17:34.135Z,11.10
2018-11-13T14:20:10.680Z,11.09
2018-11-13T14:22:42.272Z,11.24
2018-11-13T14:25:14.815Z,11.07
2018-11-13T14:27:46.362Z,10.90
2018-11-13T14:30:18.649Z,11.05
2018-11-13T14:32:50.598Z,10.98
2018-11-13T14:35:20.199Z,10.98
2018-11-13T14:37:51.187Z,10.88
2018-11-13T14:40:59.610Z,10.91
2018-11-13T14:43:29.084Z,10.92
2018-11-13T14:46:00.219Z,10.92
2018-11-13T14:48:30.223Z,11.18
2018-11-13T14:51:01.516Z,10.92
2018-11-13T14:53:32.385Z,11.14
2018-11-13T14:56:01.851Z,11.10
2018-11-13T14:58:33.298Z,11.07
2018-11-13T15:01:06.174Z,11.10
2018-11-13T15:03:37.265Z,11.19
2018-11-13T15:06:08.476Z,11.00
2018-11-13T15:08:38.443Z,11.05
2018-11-13T15:11:08.862Z,11.02
2018-11-13T15:13:39.433Z,11.06
2018-11-13T15:16:11.369Z,11.13
2018-11-13T15:18:42.246Z,11.06
2018-11-13T15:21:14.986Z,10.95
2018-11-13T15:23:44.979Z,10.98
2018-11-13T15:26:15.556Z,10.92
2018-11-13T15:28:46.122Z,10.87
2018-11-13T15:31:19.168Z,10.98
2018-11-13T15:33:50.399Z,10.95
2018-11-13T15:36:21.334Z,10.93
2018-11-13T15:38:54.267Z,10.76
2018-11-13T15:41:27.451Z,10.89
2018-11-13T15:43:58.294Z,10.88
2018-11-13T15:46:32.354Z,10.99
2018-11-13T15:49:01.828Z,10.99
2018-11-13T15:51:34.614Z,11.04
2018-11-13T15:54:04.549Z,10.87
2018-11-13T15:56:37.686Z,10.85
2018-11-13T15:59:10.069Z,10.90
2018-11-13T16:01:39.414Z,10.91
2018-11-13T16:04:10.513Z,10.92
2018-11-13T16:06:40.460Z,10.91
2018-11-13T16:09:12.853Z,10.95
2018-11-13T16:11:42.467Z,10.91
2018-11-13T16:14:12.971Z,10.87
2018-11-13T16:16:43.459Z,11.00
2018-11-13T16:19:13.795Z,10.87
2018-11-13T16:21:44.582Z,10.80
2018-11-13T16:24:14.671Z,10.72
2018-11-13T16:26:44.652Z,10.71
2018-11-13T16:29:14.498Z,10.65
2018-11-13T16:31:45.613Z,10.69
2018-11-13T16:34:16.803Z,10.57
2018-11-13T16:36:46.842Z,10.60
2018-11-13T16:39:17.875Z,10.58
2018-11-13T16:41:48.645Z,10.41
2018-11-13T16:44:18.872Z,10.48
2018-11-13T16:46:49.615Z,10.39
2018-11-13T16:49:19.624Z,10.33
2018-11-13T16:51:50.699Z,10.30
2018-11-13T16:54:20.784Z,10.24
2018-11-13T16:56:57.173Z,10.16
2018-11-13T16:59:28.899Z,10.13
2018-11-13T17:01:59.098Z,10.07
2018-11-13T17:04:29.923Z,10.03
2018-11-13T17:06:59.809Z,10.04
2018-11-13T17:09:30.851Z,9.98
2018-11-13T17:12:01.886Z,9.93
2018-11-13T17:14:37.832Z,9.96
2018-11-13T17:17:07.270Z,9.98
2018-11-13T17:19:38.937Z,9.93
2018-11-13T17:22:09.761Z,9.97
2018-11-13T17:24:41.151Z,9.92
2018-11-13T17:27:10.998Z,9.98
2018-11-13T17:29:42.130Z,10.00
2018-11-13T17:32:15.149Z,10.02
2018-11-13T17:34:45.828Z,10.06
2018-11-13T17:37:16.234Z,10.13
2018-11-13T17:39:46.619Z,10.05
2018-11-13T17:42:16.830Z,10.06
2018-11-13T17:44:47.068Z,10.12
2018-11-13T17:47:17.811Z,10.15
2018-11-13T17:49:48.118Z,10.30
2018-11-13T17:52:18.766Z,10.22
2018-11-13T17:54:49.038Z,10.34
2018-11-13T17:57:23.195Z,10.21
2018-11-13T17:59:52.928Z,10.21
2018-11-13T18:02:26.202Z,10.18
2018-11-13T18:04:56.898Z,10.17
2018-11-13T18:07:27.047Z,10.21
2018-11-13T18:10:01.097Z,10.19
2018-11-13T18:12:31.195Z,10.32
2018-11-13T18:15:01.137Z,10.26
2018-11-13T18:17:34.995Z,10.26
2018-11-13T18:20:04.993Z,10.30
2018-11-13T18:22:36.183Z,10.26
2018-11-13T18:25:08.770Z,10.25
2018-11-13T18:27:41.524Z,10.33
2018-11-13T18:30:14.673Z,10.36
2018-11-13T18:32:44.771Z,10.33
2018-11-13T18:35:19.825Z,10.29
2018-11-13T18:40:50.638Z,10.27
2018-11-13T18:43:21.512Z,10.19
2018-11-13T18:45:53.511Z,10.19
2018-11-13T18:48:23.627Z,10.24
2018-11-13T18:50:54.520Z,10.31
2018-11-13T18:53:24.535Z,10.29
2018-11-13T18:55:55.575Z,10.26
2018-11-13T18:58:30.246Z,10.30
2018-11-13T19:01:01.837Z,10.21
2018-11-13T19:03:33.318Z,10.25
2018-11-13T19:06:04.091Z,10.23
2018-11-13T19:08:37.814Z,10.35
2018-11-13T19:11:07.732Z,10.42
2018-11-13T19:13:39.456Z,10.33
2018-11-13T19:16:12.642Z,10.24
2018-11-13T19:18:47.882Z,10.32
2018-11-13T19:21:22.271Z,10.37
2018-11-13T19:23:55.306Z,10.36
2018-11-13T19:26:27.894Z,10.30
2018-11-13T19:28:59.516Z,10.34
2018-11-13T19:31:31.704Z,10.26
2018-11-13T19:34:02.295Z,10.34
2018-11-13T19:36:33.295Z,10.39
2018-11-13T19:39:03.858Z,10.36
2018-11-13T19:41:34.303Z,10.41
2018-11-13T19:44:06.830Z,10.45
2018-11-13T19:46:36.950Z,10.30
2018-11-13T19:49:09.249Z,10.26
2018-11-13T19:51:42.898Z,10.36
2018-11-13T19:57:12.445Z,10.30
2018-11-13T19:59:43.837Z,10.34
2018-11-13T20:02:14.471Z,10.37
2018-11-13T20:04:47.994Z,10.31
2018-11-13T20:07:18.938Z,10.34
2018-11-13T20:09:50.046Z,10.32
2018-11-13T20:12:20.068Z,10.30
2018-11-13T20:14:52.953Z,10.33
2018-11-13T20:17:23.927Z,10.32
2018-11-13T20:19:54.038Z,10.34
2018-11-13T20:22:26.007Z,10.15
2018-11-13T20:24:58.006Z,10.28
2018-11-13T20:27:29.122Z,10.26
2018-11-13T20:29:59.851Z,10.22
2018-11-13T20:32:30.851Z,10.22
2018-11-13T20:35:01.099Z,10.24
2018-11-13T20:37:31.083Z,10.21
2018-11-13T20:40:02.024Z,10.15
2018-11-13T20:42:33.911Z,10.14
2018-11-13T20:45:07.938Z,10.13
2018-11-13T20:50:38.573Z,10.04
2018-11-13T20:53:08.007Z,10.03
2018-11-13T20:55:40.770Z,9.95
2018-11-13T20:58:16.829Z,9.93
2018-11-13T21:00:47.929Z,9.80
2018-11-13T21:03:17.991Z,9.79
2018-11-13T21:05:50.187Z,9.83
2018-11-13T21:08:22.104Z,9.81
2018-11-13T21:10:58.408Z,9.76
2018-11-13T21:13:28.971Z,9.67
2018-11-13T21:15:59.936Z,9.63
2018-11-13T21:21:29.768Z,9.54
2018-11-13T21:24:04.879Z,9.40
2018-11-13T21:26:35.019Z,9.45
2018-11-13T21:29:10.726Z,9.43
2018-11-13T21:31:42.162Z,9.46
2018-11-13T21:34:13.723Z,7.91
2018-11-13T21:36:44.061Z,9.47
2018-11-13T21:39:14.079Z,9.32
2018-11-13T21:41:45.074Z,9.27
2018-11-13T21:44:15.231Z,9.23
2018-11-13T21:46:46.051Z,9.16
2018-11-13T21:49:23.127Z,9.21
2018-11-13T21:54:52.906Z,9.29
2018-11-13T21:57:28.029Z,9.10
2018-11-13T21:59:59.129Z,9.21
2018-11-13T22:02:29.162Z,9.23
2018-11-13T22:05:00.530Z,9.20
2018-11-13T22:07:31.254Z,9.27
2018-11-13T22:10:01.967Z,9.24
2018-11-13T22:12:31.364Z,9.30
2018-11-13T22:15:02.421Z,9.27
2018-11-13T22:17:32.210Z,9.25
2018-11-13T22:20:02.210Z,9.23
2018-11-13T22:22:36.219Z,9.22
2018-11-13T22:25:11.527Z,9.13
2018-11-13T22:27:45.475Z,8.99
2018-11-13T22:30:21.829Z,8.88
2018-11-13T22:32:53.406Z,8.74
2018-11-13T22:35:23.605Z,8.86
2018-11-13T22:37:54.626Z,8.93
2018-11-13T22:40:27.739Z,8.95
2018-11-13T22:42:59.460Z,8.96
2018-11-13T22:45:30.841Z,8.91
2018-11-13T22:48:02.278Z,8.80
2018-11-13T22:50:34.360Z,8.74
2018-11-13T22:53:06.291Z,8.71
2018-11-13T22:55:37.523Z,8.77
2018-11-13T22:58:08.315Z,8.80
2018-11-13T23:00:48.705Z,8.75
2018-11-13T23:03:19.726Z,8.70
2018-11-13T23:05:50.104Z,8.75
2018-11-13T23:08:22.727Z,8.73
2018-11-13T23:10:53.554Z,8.81
2018-11-13T23:13:24.520Z,8.78
2018-11-13T23:15:54.475Z,8.79
2018-11-13T23:18:28.426Z,8.80
2018-11-13T23:20:59.571Z,8.70
2018-11-13T23:23:29.767Z,8.64
2018-11-13T23:26:00.399Z,8.45
2018-11-13T23:28:30.626Z,8.38
2018-11-13T23:31:01.376Z,8.34
2018-11-13T23:33:37.615Z,8.29
2018-11-13T23:36:08.780Z,8.29
2018-11-13T23:38:38.598Z,8.30
2018-11-13T23:41:09.716Z,8.29
2018-11-13T23:43:42.590Z,8.26
2018-11-13T23:46:16.551Z,8.26
2018-11-13T23:48:47.626Z,8.22
2018-11-13T23:51:20.766Z,8.22
2018-11-13T23:53:50.847Z,8.22
2018-11-13T23:56:21.836Z,8.19
2018-11-13T23:58:51.639Z,8.09
